This is the latest recevied weather packets stored in our database for station/object MM9SQL. If no packets are shown the sender has not sent any weather packets the latest 10 day(s).
| Time | Temp. | Humidity | Pressure | Rain* | Wind** | Luminosity | Snow |
|---|---|---|---|---|---|---|---|
| 1777574414 | 17.78° C | 34% | 1020.3 hPa | 0 mm | - | - | - |
| 1777571405 | 19.44° C | 29% | 1020.7 hPa | 0 mm | - | - | - |
| 1777570203 | 20° C | 28% | 1020.9 hPa | 0 mm | - | - | - |
| 1777569002 | 20.56° C | 31% | 1021 hPa | 0 mm | - | - | - |
| 1777567802 | 21.11° C | 32% | 1021 hPa | 0 mm | - | - | - |
| 1777566302 | 21.11° C | 34% | 1021.3 hPa | 0 mm | - | - | - |
| 1777565403 | 21.11° C | 33% | 1021.6 hPa | 0 mm | - | - | - |
| 1777560605 | 22.22° C | 30% | 1022.1 hPa | 0 mm | - | - | - |
| 1777560304 | 22.22° C | 27% | 1022 hPa | 0 mm | - | - | - |
| 1777558805 | 22.22° C | 28% | 1022.3 hPa | 0 mm | - | - | - |
| 1777558206 | 21.67° C | 30% | 1022.4 hPa | 0 mm | - | - | - |
| 1777557605 | 22.22° C | 30% | 1022.6 hPa | 0 mm | - | - | - |
| 1777555503 | 22.22° C | 29% | 1022.8 hPa | 0 mm | - | - | - |
| 1777551603 | 21.67° C | 29% | 1023.4 hPa | 0 mm | - | - | - |
| 1777548604 | 21.67° C | 25% | 1024.2 hPa | 0 mm | - | - | - |
| 1777542005 | 17.22° C | 27% | 1025.3 hPa | 0 mm | - | - | - |
| 1777541408 | 16.67° C | 29% | 1025.5 hPa | 0 mm | - | - | - |
| 1777539904 | 15.56° C | 33% | 1025.5 hPa | 0 mm | - | - | - |
| 1777539610 | 15.56° C | 33% | 1025.5 hPa | 0 mm | - | - | - |
| 1777537813 | 13.89° C | 40% | 1026 hPa | 0 mm | - | - | - |
| 1777536905 | 13.33° C | 38% | 1026.3 hPa | 0 mm | - | - | - |
| 1777534507 | 11.67° C | 45% | 1026.7 hPa | 0 mm | - | - | - |
| 1777532707 | 12.22° C | 42% | 1026.5 hPa | 0 mm | - | - | - |
| 1777528804 | 8.33° C | 53% | 1026.5 hPa | 0 mm | - | - | - |
| 1777526104 | 6.11° C | 58% | 1026.5 hPa | 0 mm | - | - | - |
* Rain latest hour (hover to see other rain measurements)
** Current wind speed in m/s (hover to see current wind gust speed)